Time;durP1;ratioP1;P1;durP2;ratioP2;P2;SDS_P1;SDS_P2;PMS_P1;PMS_P2;Temp;Humidity;BMP_temperature;BMP_pressure;BME280_temperature;BME280_humidity;BME280_pressure;Samples;Min_cycle;Max_cycle;Signal;HPM_P1;HPM_P2
2024/04/02 00:01:49;;;;;;;0.70;0.50;;;19.40;1.00;;;;;;2613423;54;20426;-62
2024/04/02 00:04:15;;;;;;;1.53;1.43;;;19.40;1.00;;;;;;2613008;47;20171;-61
2024/04/02 00:06:41;;;;;;;0.70;0.60;;;19.40;1.00;;;;;;2612744;54;20423;-59
2024/04/02 00:09:08;;;;;;;0.70;0.50;;;19.40;1.00;;;;;;2612958;47;21022;-58
2024/04/02 00:11:33;;;;;;;0.70;0.50;;;19.40;1.00;;;;;;2611483;47;21139;-59
2024/04/02 00:13:59;;;;;;;0.70;0.60;;;19.40;1.00;;;;;;2613448;39;20800;-58
2024/04/02 00:16:25;;;;;;;0.70;0.50;;;19.40;1.00;;;;;;2613247;54;20162;-59
2024/04/02 00:18:50;;;;;;;0.70;0.60;;;19.40;1.00;;;;;;2611847;54;20246;-59
2024/04/02 00:21:16;;;;;;;0.70;0.50;;;19.40;1.00;;;;;;2612932;54;20245;-59
2024/04/02 00:23:42;;;;;;;0.70;0.50;;;19.40;1.00;;;;;;2612106;54;20162;-59
2024/04/02 00:26:08;;;;;;;0.70;0.50;;;19.40;1.00;;;;;;2613091;54;20246;-59
2024/04/02 00:28:33;;;;;;;0.67;0.50;;;19.40;1.00;;;;;;2612580;47;20961;-60
2024/04/02 00:31:00;;;;;;;0.60;0.50;;;19.40;1.00;;;;;;2612060;47;20246;-59
2024/04/02 00:33:27;;;;;;;0.70;0.50;;;19.40;1.00;;;;;;2612822;47;20155;-59
2024/04/02 00:36:03;;;;;;;0.70;0.60;;;19.40;1.00;;;;;;2612099;54;20423;-59
2024/04/02 00:38:30;;;;;;;0.70;0.60;;;19.40;1.00;;;;;;2612575;54;20961;-59
2024/04/02 00:40:56;;;;;;;0.60;0.50;;;19.40;1.00;;;;;;2612808;54;20426;-58
2024/04/02 00:43:23;;;;;;;0.70;0.50;;;19.40;1.00;;;;;;2612974;54;20416;-59
2024/04/02 00:45:49;;;;;;;0.70;0.50;;;19.40;1.00;;;;;;2612980;39;20884;-62
2024/04/02 00:48:16;;;;;;;0.60;0.50;;;19.40;1.00;;;;;;2612754;54;20448;-63
2024/04/02 00:50:42;;;;;;;0.70;0.50;;;19.40;1.00;;;;;;2612066;54;20158;-62
2024/04/02 00:53:08;;;;;;;0.70;0.50;;;19.40;1.00;;;;;;2612358;39;20790;-60
2024/04/02 00:55:37;;;;;;;0.70;0.50;;;19.40;1.00;;;;;;2612267;54;20198;-61
2024/04/02 00:58:05;;;;;;;0.63;0.50;;;19.40;1.00;;;;;;2612304;47;20413;-62
2024/04/02 01:00:32;;;;;;;0.70;0.60;;;19.40;1.00;;;;;;2611670;47;20435;-62
2024/04/02 01:02:57;;;;;;;0.70;0.53;;;19.40;1.00;;;;;;2612040;54;20379;-62
2024/04/02 01:05:23;;;;;;;0.70;0.60;;;19.40;1.00;;;;;;2613066;54;20395;-62
2024/04/02 01:07:50;;;;;;;0.70;0.60;;;19.40;1.00;;;;;;2613348;54;20250;-62
2024/04/02 01:10:15;;;;;;;0.70;0.60;;;19.40;1.00;;;;;;2613029;47;20227;-62
2024/04/02 01:12:41;;;;;;;0.70;0.50;;;19.40;1.00;;;;;;2613187;54;20407;-63
2024/04/02 01:15:07;;;;;;;0.70;0.50;;;19.40;1.00;;;;;;2613145;54;20162;-57
2024/04/02 01:17:33;;;;;;;0.70;0.60;;;19.40;1.00;;;;;;2612952;54;20192;-57
2024/04/02 01:19:58;;;;;;;0.70;0.60;;;19.40;1.00;;;;;;2613668;47;20189;-59
2024/04/02 01:22:24;;;;;;;0.60;0.60;;;19.40;1.00;;;;;;2612582;39;20449;-59
2024/04/02 01:24:59;;;;;;;0.63;0.50;;;19.40;1.00;;;;;;2613344;47;20611;-61
2024/04/02 01:27:26;;;;;;;0.70;0.50;;;19.40;1.00;;;;;;2614445;39;20581;-62
2024/04/02 01:29:52;;;;;;;0.70;0.50;;;19.40;1.00;;;;;;2613168;54;20416;-62
2024/04/02 01:32:17;;;;;;;0.70;0.60;;;19.30;1.00;;;;;;2613234;54;20459;-62
2024/04/02 01:34:43;;;;;;;0.67;0.50;;;19.40;1.00;;;;;;2613543;54;20158;-61
2024/04/02 01:37:09;;;;;;;0.70;0.50;;;19.40;1.00;;;;;;2612346;54;20155;-62
2024/04/02 01:39:35;;;;;;;0.70;0.60;;;19.40;1.00;;;;;;2613957;39;20564;-61
2024/04/02 01:42:00;;;;;;;0.70;0.60;;;19.40;1.00;;;;;;2613596;39;20618;-62
2024/04/02 01:44:26;;;;;;;0.70;0.60;;;19.40;1.00;;;;;;2612840;54;20157;-62
2024/04/02 01:46:52;;;;;;;0.70;0.60;;;19.40;1.00;;;;;;2613039;39;20476;-62
2024/04/02 01:49:17;;;;;;;0.70;0.60;;;19.40;1.00;;;;;;2613320;47;20171;-61
2024/04/02 01:51:44;;;;;;;0.70;0.60;;;19.40;1.00;;;;;;2613470;47;20635;-61
2024/04/02 01:54:09;;;;;;;0.63;0.50;;;19.40;1.00;;;;;;2613060;54;20190;-62
2024/04/02 01:56:35;;;;;;;0.60;0.50;;;19.40;1.00;;;;;;2613399;54;20415;-62
2024/04/02 01:59:01;;;;;;;0.70;0.50;;;19.40;1.00;;;;;;2613502;54;20154;-62
2024/04/02 02:01:26;;;;;;;0.70;0.50;;;19.30;1.00;;;;;;2612105;54;20672;-61
2024/04/02 02:03:52;;;;;;;0.70;0.50;;;19.40;1.00;;;;;;2612727;54;20207;-62
2024/04/02 02:06:18;;;;;;;0.70;0.50;;;19.40;1.00;;;;;;2612250;47;20170;-63
2024/04/02 02:08:43;;;;;;;0.70;0.50;;;19.40;1.00;;;;;;2612809;54;20242;-62
2024/04/02 02:11:09;;;;;;;0.60;0.50;;;19.30;1.00;;;;;;2613468;39;20668;-62
2024/04/02 02:13:36;;;;;;;0.70;0.50;;;19.30;1.00;;;;;;2612975;54;20171;-62
2024/04/02 02:16:02;;;;;;;0.70;0.60;;;19.30;1.00;;;;;;2613747;39;20554;-61
2024/04/02 02:18:31;;;;;;;0.70;0.60;;;19.30;1.00;;;;;;2613228;54;20427;-62
2024/04/02 02:21:00;;;;;;;0.70;0.60;;;19.30;1.00;;;;;;2613697;47;21015;-62
2024/04/02 02:23:26;;;;;;;0.70;0.60;;;19.30;1.00;;;;;;2612525;39;20867;-63
2024/04/02 02:25:53;;;;;;;0.70;0.60;;;19.40;1.00;;;;;;2613371;54;20419;-62
2024/04/02 02:28:18;;;;;;;0.67;0.60;;;19.40;1.00;;;;;;2613549;54;20424;-61
2024/04/02 02:30:45;;;;;;;0.70;0.70;;;19.30;1.00;;;;;;2612789;39;20809;-62
2024/04/02 02:33:11;;;;;;;0.70;0.70;;;19.30;1.00;;;;;;2613116;47;20201;-62
2024/04/02 02:35:37;;;;;;;0.70;0.70;;;19.30;1.00;;;;;;2613708;54;20404;-61
2024/04/02 02:38:03;;;;;;;0.70;0.70;;;19.30;1.00;;;;;;2612353;54;20752;-60
2024/04/02 02:40:30;;;;;;;0.70;0.70;;;19.30;1.00;;;;;;2613354;54;20198;-61
2024/04/02 02:42:56;;;;;;;0.70;0.70;;;19.30;1.00;;;;;;2612719;31;20913;-60
2024/04/02 02:45:22;;;;;;;0.70;0.63;;;19.30;1.00;;;;;;2613498;54;20442;-61
2024/04/02 02:47:48;;;;;;;0.70;0.70;;;19.30;1.00;;;;;;2613140;54;20415;-60
2024/04/02 02:50:14;;;;;;;0.70;0.70;;;19.30;1.00;;;;;;2612806;47;20427;-60
2024/04/02 02:52:40;;;;;;;0.70;0.60;;;19.30;1.00;;;;;;2612976;47;20436;-61
2024/04/02 02:55:05;;;;;;;0.70;0.50;;;19.30;1.00;;;;;;2613171;54;20246;-60
2024/04/02 02:57:31;;;;;;;0.70;0.60;;;19.30;1.00;;;;;;2612057;54;20171;-61
2024/04/02 02:59:57;;;;;;;0.70;0.60;;;19.30;1.00;;;;;;2612021;54;20166;-60
2024/04/02 03:02:23;;;;;;;0.70;0.60;;;19.30;1.00;;;;;;2612503;47;20218;-60
2024/04/02 03:04:51;;;;;;;0.70;0.60;;;19.30;1.00;;;;;;2611970;54;20404;-62
2024/04/02 03:07:17;;;;;;;0.70;0.60;;;19.30;1.00;;;;;;2611654;54;20170;-62
2024/04/02 03:09:43;;;;;;;0.70;0.60;;;19.30;1.00;;;;;;2613415;54;20515;-62
2024/04/02 03:12:09;;;;;;;0.70;0.60;;;19.30;1.00;;;;;;2613333;39;20586;-62
2024/04/02 03:14:35;;;;;;;0.70;0.60;;;19.30;1.00;;;;;;2613352;54;20456;-61
2024/04/02 03:17:00;;;;;;;0.70;0.63;;;19.30;1.00;;;;;;2612591;47;20419;-63
2024/04/02 03:19:28;;;;;;;0.70;0.70;;;19.30;1.00;;;;;;2612673;54;20188;-62
2024/04/02 03:21:53;;;;;;;0.70;0.60;;;19.30;1.00;;;;;;2612960;47;20162;-60
2024/04/02 03:24:19;;;;;;;0.70;0.67;;;19.30;1.00;;;;;;2613122;39;20920;-62
2024/04/02 03:26:46;;;;;;;0.70;0.60;;;19.30;1.00;;;;;;2612785;54;20131;-62
2024/04/02 03:29:12;;;;;;;0.70;0.60;;;19.30;1.00;;;;;;2613206;47;20627;-62
2024/04/02 03:31:38;;;;;;;0.70;0.63;;;19.30;1.00;;;;;;2613529;54;20415;-61
2024/04/02 03:34:03;;;;;;;0.70;0.60;;;19.30;1.00;;;;;;2612662;54;20187;-62
2024/04/02 03:36:29;;;;;;;0.70;0.60;;;19.30;1.00;;;;;;2612586;54;20165;-63
2024/04/02 03:38:56;;;;;;;0.70;0.60;;;19.30;1.00;;;;;;2613319;54;20187;-62
2024/04/02 03:41:22;;;;;;;0.70;0.60;;;19.30;1.00;;;;;;2613225;39;20647;-61
2024/04/02 03:43:48;;;;;;;0.70;0.60;;;19.30;1.00;;;;;;2613274;39;20896;-63
2024/04/02 03:46:14;;;;;;;0.70;0.50;;;19.30;1.00;;;;;;2613183;54;20442;-60
2024/04/02 03:48:40;;;;;;;0.60;0.50;;;19.30;1.00;;;;;;2612904;54;20423;-60
2024/04/02 03:51:06;;;;;;;0.70;0.60;;;19.30;1.00;;;;;;2612512;54;20450;-59
2024/04/02 03:53:32;;;;;;;0.60;0.40;;;19.30;1.00;;;;;;2612804;54;20194;-61
2024/04/02 03:55:59;;;;;;;0.70;0.60;;;19.30;1.00;;;;;;2613202;54;20179;-60
2024/04/02 03:58:26;;;;;;;0.70;0.60;;;19.30;1.00;;;;;;2612447;54;20159;-60
2024/04/02 04:00:54;;;;;;;0.63;0.57;;;19.30;1.00;;;;;;2612121;54;20427;-59
2024/04/02 04:03:25;;;;;;;0.70;0.50;;;19.30;1.00;;;;;;2612815;39;21305;-61
2024/04/02 04:05:58;;;;;;;0.60;0.50;;;19.30;1.00;;;;;;2612541;47;20406;-61
2024/04/02 04:08:26;;;;;;;0.60;0.50;;;19.30;1.00;;;;;;2612318;47;20515;-60
2024/04/02 04:10:52;;;;;;;0.70;0.53;;;19.30;1.00;;;;;;2612888;54;20447;-59
2024/04/02 04:13:17;;;;;;;0.70;0.53;;;19.20;1.00;;;;;;2613080;54;20988;-59
2024/04/02 04:15:53;;;;;;;0.70;0.60;;;19.30;1.00;;;;;;2611645;54;20178;-66
2024/04/02 04:18:20;;;;;;;0.67;0.50;;;19.30;1.00;;;;;;2612714;54;20158;-64
2024/04/02 04:21:01;;;;;;;0.60;0.50;;;19.30;1.00;;;;;;2613398;47;20423;-66
2024/04/02 04:23:28;;;;;;;0.70;0.50;;;19.20;1.00;;;;;;2613246;54;20403;-65
2024/04/02 04:26:01;;;;;;;0.67;0.50;;;19.30;1.00;;;;;;2612923;54;20510;-65
2024/04/02 04:28:28;;;;;;;0.70;0.50;;;19.30;1.00;;;;;;2612033;54;20446;-68
2024/04/02 04:31:01;;;;;;;0.63;0.50;;;19.30;1.00;;;;;;2612217;54;20407;-66
2024/04/02 04:33:28;;;;;;;0.70;0.60;;;19.30;1.00;;;;;;2613387;39;20945;-65
2024/04/02 04:35:54;;;;;;;0.70;0.60;;;19.20;1.00;;;;;;2612899;54;21597;-66
2024/04/02 04:38:21;;;;;;;0.70;0.70;;;19.20;1.00;;;;;;2612237;54;20423;-66
2024/04/02 04:40:47;;;;;;;0.70;0.70;;;19.30;1.00;;;;;;2612209;54;20424;-66
2024/04/02 04:43:15;;;;;;;0.63;0.50;;;19.30;1.00;;;;;;2613077;54;20399;-65
2024/04/02 04:45:52;;;;;;;0.60;0.40;;;19.30;1.00;;;;;;2612580;54;20450;-63
2024/04/02 04:48:18;;;;;;;0.60;0.50;;;19.30;1.00;;;;;;2612681;54;20439;-63
2024/04/02 04:50:59;;;;;;;0.70;0.50;;;19.30;1.00;;;;;;2613093;47;21036;-62
2024/04/02 04:53:25;;;;;;;0.70;0.60;;;19.30;1.00;;;;;;2612655;47;20431;-61
2024/04/02 04:55:51;;;;;;;0.70;0.60;;;19.20;1.00;;;;;;2612653;54;20424;-61
2024/04/02 04:58:16;;;;;;;0.67;0.50;;;19.20;1.00;;;;;;2612467;39;20576;-63
2024/04/02 05:00:43;;;;;;;0.70;0.60;;;19.20;1.00;;;;;;2611579;54;20169;-63
2024/04/02 05:03:10;;;;;;;0.60;0.60;;;19.30;1.00;;;;;;2611510;54;20751;-62
2024/04/02 05:05:35;;;;;;;0.63;0.50;;;19.20;1.00;;;;;;2612700;54;20427;-62
2024/04/02 05:08:25;;;;;;;0.60;0.50;;;19.20;1.00;;;;;;2612745;39;20772;-62
2024/04/02 05:10:52;;;;;;;0.60;0.43;;;19.30;1.00;;;;;;2612403;54;20154;-61
2024/04/02 05:13:18;;;;;;;0.60;0.50;;;19.30;1.00;;;;;;2612793;54;20413;-62
2024/04/02 05:15:44;;;;;;;0.60;0.50;;;19.20;1.00;;;;;;2612160;54;20996;-62
2024/04/02 05:18:11;;;;;;;0.60;0.50;;;19.20;1.00;;;;;;2612819;54;20399;-62
2024/04/02 05:20:36;;;;;;;0.70;0.40;;;19.30;1.00;;;;;;2612977;47;20498;-62
2024/04/02 05:23:04;;;;;;;0.70;0.57;;;19.20;1.00;;;;;;2612038;47;20427;-62
2024/04/02 05:25:29;;;;;;;0.60;0.50;;;19.30;1.00;;;;;;2612568;47;20186;-65
2024/04/02 05:27:55;;;;;;;0.70;0.50;;;19.20;1.00;;;;;;2612066;54;20965;-62
2024/04/02 05:30:20;;;;;;;0.60;0.50;;;19.20;1.00;;;;;;2611708;47;20166;-63
2024/04/02 05:32:46;;;;;;;0.70;0.60;;;19.20;1.00;;;;;;2613001;54;20151;-62
2024/04/02 05:35:12;;;;;;;0.60;0.40;;;19.20;1.00;;;;;;2613414;31;20663;-63
2024/04/02 05:37:38;;;;;;;0.60;0.50;;;19.20;1.00;;;;;;2613191;39;20558;-62
2024/04/02 05:40:04;;;;;;;0.60;0.50;;;19.20;1.00;;;;;;2611222;54;20411;-62
2024/04/02 05:42:34;;;;;;;0.60;0.40;;;19.20;1.00;;;;;;2612407;47;20171;-62
2024/04/02 05:45:00;;;;;;;0.60;0.50;;;19.30;1.00;;;;;;2611928;54;20412;-62
2024/04/02 05:47:26;;;;;;;0.60;0.47;;;19.20;1.00;;;;;;2612281;47;20423;-63
2024/04/02 05:49:52;;;;;;;0.60;0.40;;;19.30;1.00;;;;;;2612150;54;20408;-63
2024/04/02 05:52:18;;;;;;;0.60;0.40;;;19.30;1.00;;;;;;2612997;54;20976;-62
2024/04/02 05:54:44;;;;;;;0.60;0.40;;;19.20;1.00;;;;;;2612667;47;20201;-61
2024/04/02 05:57:10;;;;;;;0.70;0.50;;;19.30;1.00;;;;;;2612454;54;20415;-63
2024/04/02 05:59:37;;;;;;;0.60;0.40;;;19.20;1.00;;;;;;2612438;54;20463;-62
2024/04/02 06:02:03;;;;;;;0.60;0.47;;;19.20;1.00;;;;;;2613349;39;21017;-62
2024/04/02 06:04:29;;;;;;;0.60;0.50;;;19.20;1.00;;;;;;2613273;54;20427;-63
2024/04/02 06:06:54;;;;;;;0.63;0.50;;;19.20;1.00;;;;;;2612400;51;21020;-62
2024/04/02 06:09:21;;;;;;;0.63;0.43;;;19.20;1.00;;;;;;2613545;54;20194;-64
2024/04/02 06:11:47;;;;;;;0.70;0.50;;;19.20;1.00;;;;;;2613142;47;20228;-63
2024/04/02 06:14:12;;;;;;;0.70;0.50;;;19.20;1.00;;;;;;2613608;39;20882;-62
2024/04/02 06:16:38;;;;;;;0.60;0.40;;;19.20;1.00;;;;;;2613360;54;20519;-62
2024/04/02 06:19:05;;;;;;;0.60;0.50;;;19.20;1.00;;;;;;2613033;47;20250;-63
2024/04/02 06:21:31;;;;;;;0.70;0.50;;;19.20;1.00;;;;;;2612138;54;20170;-63
2024/04/02 06:23:57;;;;;;;0.60;0.60;;;19.30;1.00;;;;;;2613800;39;20828;-62
2024/04/02 06:26:22;;;;;;;0.70;0.50;;;19.20;1.00;;;;;;2612420;54;20201;-62
2024/04/02 06:28:48;;;;;;;0.60;0.50;;;19.20;1.00;;;;;;2612353;54;20163;-62
2024/04/02 06:31:15;;;;;;;0.60;0.50;;;19.20;1.00;;;;;;2613537;39;20555;-63
2024/04/02 06:33:41;;;;;;;0.60;0.50;;;19.20;1.00;;;;;;2614023;39;20572;-62
2024/04/02 06:36:07;;;;;;;0.70;0.50;;;19.20;1.00;;;;;;2612757;47;20426;-61
2024/04/02 06:38:32;;;;;;;0.60;0.40;;;19.20;1.00;;;;;;2613417;54;20151;-60
2024/04/02 06:40:58;;;;;;;0.60;0.50;;;19.20;1.00;;;;;;2613142;54;20544;-62
2024/04/02 06:43:24;;;;;;;0.60;0.40;;;19.20;1.00;;;;;;2612743;54;20178;-61
2024/04/02 06:45:57;;;;;;;0.70;0.50;;;19.20;1.00;;;;;;2612913;39;20378;-60
2024/04/02 06:48:23;;;;;;;0.63;0.50;;;19.20;1.00;;;;;;2613034;54;20167;-60
2024/04/02 06:51:00;;;;;;;0.70;0.50;;;19.20;1.00;;;;;;2614401;39;20775;-60
2024/04/02 06:53:30;;;;;;;0.60;0.40;;;19.30;1.00;;;;;;2612632;39;20996;-59
2024/04/02 06:55:56;;;;;;;0.60;0.40;;;19.20;1.00;;;;;;2613155;54;20447;-59
2024/04/02 06:58:22;;;;;;;0.60;0.50;;;19.20;1.00;;;;;;2612345;54;20514;-58
2024/04/02 07:00:48;;;;;;;0.60;0.40;;;19.20;1.00;;;;;;2612252;39;20845;-60
2024/04/02 07:03:23;;;;;;;0.70;0.50;;;19.20;1.00;;;;;;2612266;39;20802;-60
2024/04/02 07:05:51;;;;;;;0.60;0.43;;;19.20;1.00;;;;;;2613635;47;20455;-59
2024/04/02 07:08:18;;;;;;;0.60;0.40;;;19.20;1.00;;;;;;2613365;39;20807;-59
2024/04/02 07:10:58;;;;;;;0.60;0.40;;;19.30;1.00;;;;;;2612235;47;20505;-58
2024/04/02 07:13:24;;;;;;;0.60;0.40;;;19.30;1.00;;;;;;2612949;39;20818;-60
2024/04/02 07:15:49;;;;;;;0.70;0.50;;;19.30;1.00;;;;;;2612444;54;20918;-60
2024/04/02 07:18:15;;;;;;;0.60;0.40;;;19.30;1.00;;;;;;2613410;54;20419;-59
2024/04/02 07:20:41;;;;;;;0.60;0.40;;;19.30;1.00;;;;;;2612911;54;20661;-59
2024/04/02 07:23:08;;;;;;;0.60;0.40;;;19.30;1.00;;;;;;2612989;54;20675;-58
2024/04/02 07:25:33;;;;;;;0.70;0.50;;;19.30;1.00;;;;;;2612224;47;20461;-63
2024/04/02 07:27:59;;;;;;;0.67;0.40;;;19.30;1.00;;;;;;2613017;54;20427;-63
2024/04/02 07:30:25;;;;;;;0.60;0.40;;;19.40;1.00;;;;;;2611893;47;20166;-63
2024/04/02 07:32:51;;;;;;;0.60;0.50;;;19.30;1.00;;;;;;2613259;54;20290;-63
2024/04/02 07:35:18;;;;;;;0.60;0.40;;;19.30;1.00;;;;;;2613242;47;20170;-63
2024/04/02 07:37:43;;;;;;;0.70;0.60;;;19.30;1.00;;;;;;2612017;54;20427;-63
2024/04/02 07:40:09;;;;;;;0.60;0.40;;;19.30;1.00;;;;;;2613080;54;21606;-62
2024/04/02 07:42:35;;;;;;;0.60;0.47;;;19.30;1.00;;;;;;2613203;54;20167;-64
2024/04/02 07:45:01;;;;;;;0.60;0.40;;;19.30;1.00;;;;;;2614058;39;20869;-62
2024/04/02 07:47:26;;;;;;;0.60;0.40;;;19.30;1.00;;;;;;2611882;47;20178;-63
2024/04/02 07:49:52;;;;;;;0.60;0.40;;;19.30;1.00;;;;;;2613247;54;20182;-63
2024/04/02 07:52:18;;;;;;;0.60;0.40;;;19.30;1.00;;;;;;2612818;54;20163;-62
2024/04/02 07:54:44;;;;;;;0.60;0.40;;;19.30;1.00;;;;;;2613118;47;20206;-62
2024/04/02 07:57:10;;;;;;;0.60;0.40;;;19.30;1.00;;;;;;2613192;54;20411;-63
2024/04/02 07:59:35;;;;;;;0.70;0.50;;;19.30;1.00;;;;;;2613151;47;20331;-63
2024/04/02 08:02:01;;;;;;;0.60;0.47;;;19.30;1.00;;;;;;2612019;54;20416;-62
2024/04/02 08:04:27;;;;;;;0.70;0.70;;;19.30;1.00;;;;;;2612972;54;20158;-63
2024/04/02 08:06:53;;;;;;;0.60;0.40;;;19.30;1.00;;;;;;2612435;54;20214;-62
2024/04/02 08:09:19;;;;;;;0.60;0.40;;;19.30;1.00;;;;;;2612780;54;20688;-63
2024/04/02 08:11:44;;;;;;;0.60;0.40;;;19.30;1.00;;;;;;2613191;54;20407;-62
2024/04/02 08:14:10;;;;;;;0.60;0.40;;;19.30;1.00;;;;;;2612866;54;20154;-63
2024/04/02 08:16:36;;;;;;;0.60;0.40;;;19.30;1.00;;;;;;2613464;54;20151;-64
2024/04/02 08:19:02;;;;;;;0.60;0.40;;;19.30;1.00;;;;;;2612024;54;20422;-62
2024/04/02 08:21:28;;;;;;;0.60;0.43;;;19.20;1.00;;;;;;2613181;47;20282;-62
2024/04/02 08:23:53;;;;;;;0.60;0.50;;;19.30;1.00;;;;;;2612541;47;20294;-63
2024/04/02 08:26:19;;;;;;;0.60;0.50;;;19.20;1.00;;;;;;2612512;54;20171;-62
2024/04/02 08:28:45;;;;;;;0.60;0.50;;;19.20;1.00;;;;;;2611816;54;21332;-62
2024/04/02 08:31:11;;;;;;;0.60;0.40;;;19.20;1.00;;;;;;2612400;47;20238;-62
2024/04/02 08:33:37;;;;;;;0.60;0.40;;;19.20;1.00;;;;;;2612919;54;20407;-62
2024/04/02 08:36:03;;;;;;;0.60;0.40;;;19.20;1.00;;;;;;2612419;54;20294;-66
2024/04/02 08:38:29;;;;;;;0.60;0.40;;;19.30;1.00;;;;;;2611958;47;20207;-66
2024/04/02 08:41:01;;;;;;;0.70;0.50;;;19.30;1.00;;;;;;2612583;54;20968;-66
2024/04/02 08:43:29;;;;;;;0.60;0.40;;;19.30;1.00;;;;;;2611940;54;20150;-65
2024/04/02 08:45:57;;;;;;;0.60;0.40;;;19.20;1.00;;;;;;2612920;39;20803;-66
2024/04/02 08:48:25;;;;;;;0.60;0.40;;;19.20;1.00;;;;;;2613095;47;20427;-66
2024/04/02 08:50:52;;;;;;;0.60;0.40;;;19.20;1.00;;;;;;2613264;31;20822;-66
2024/04/02 08:53:18;;;;;;;0.60;0.40;;;19.30;1.00;;;;;;2612739;51;20447;-67
2024/04/02 08:55:46;;;;;;;0.60;0.30;;;19.20;1.00;;;;;;2612660;46;20450;-67
2024/04/02 08:58:12;;;;;;;0.60;0.50;;;19.20;1.00;;;;;;2611773;54;20175;-65
2024/04/02 09:00:39;;;;;;;0.60;0.40;;;19.20;1.00;;;;;;2612052;54;20427;-65
2024/04/02 09:03:12;;;;;;;0.60;0.40;;;19.20;1.00;;;;;;2611099;54;20450;-66
2024/04/02 09:05:38;;;;;;;0.60;0.30;;;19.20;1.00;;;;;;2611815;54;21155;-66
2024/04/02 09:08:09;;;;;;;0.60;0.40;;;19.20;1.00;;;;;;2612578;54;20427;-66
2024/04/02 09:10:35;;;;;;;0.60;0.40;;;19.20;1.00;;;;;;2612281;54;20178;-66
2024/04/02 09:13:00;;;;;;;0.60;0.40;;;19.20;1.00;;;;;;2612483;47;20547;-66
2024/04/02 09:15:26;;;;;;;0.60;0.37;;;19.20;1.00;;;;;;2613073;47;20210;-63
2024/04/02 09:17:52;;;;;;;0.60;0.40;;;19.30;1.00;;;;;;2611836;54;20278;-63
2024/04/02 09:20:18;;;;;;;0.60;0.40;;;19.30;1.00;;;;;;2612607;39;20569;-64
2024/04/02 09:22:43;;;;;;;0.60;0.40;;;19.20;1.00;;;;;;2612597;54;20178;-62
2024/04/02 09:25:11;;;;;;;0.60;0.30;;;19.20;1.00;;;;;;2613258;31;20705;-64
2024/04/02 09:27:37;;;;;;;0.60;0.40;;;19.20;1.00;;;;;;2614228;39;20599;-63
2024/04/02 09:30:03;;;;;;;0.60;0.40;;;19.20;1.00;;;;;;2613447;54;20547;-63
2024/04/02 09:32:29;;;;;;;0.60;0.40;;;19.20;1.00;;;;;;2612609;54;20159;-63
2024/04/02 09:34:56;;;;;;;0.60;0.40;;;19.20;1.00;;;;;;2613228;47;20166;-72
2024/04/02 09:37:36;;;;;;;0.60;0.30;;;19.20;1.00;;;;;;2614202;54;20170;-72
2024/04/02 09:40:05;;;;;;;0.60;0.40;;;19.20;1.00;;;;;;2613846;54;20428;-72
2024/04/02 09:42:32;;;;;;;0.60;0.40;;;19.20;1.00;;;;;;2614506;39;20862;-73
2024/04/02 09:45:01;;;;;;;0.60;0.30;;;19.30;1.00;;;;;;2613192;54;20427;-60
2024/04/02 09:47:30;;;;;;;0.60;0.40;;;19.30;1.00;;;;;;2613047;54;20434;-59
2024/04/02 09:49:58;;;;;;;0.60;0.40;;;19.20;1.00;;;;;;2613398;54;20407;-59
2024/04/02 09:52:25;;;;;;;0.60;0.40;;;19.20;1.00;;;;;;2612625;54;20433;-61
2024/04/02 09:54:51;;;;;;;0.60;0.40;;;19.30;1.00;;;;;;2613416;54;20470;-60
2024/04/02 09:57:20;;;;;;;0.60;0.40;;;19.30;1.00;;;;;;2613360;54;20472;-59
2024/04/02 09:59:46;;;;;;;0.60;0.40;;;19.20;1.00;;;;;;2612586;47;20419;-59
2024/04/02 10:02:16;;;;;;;0.60;0.40;;;19.20;1.00;;;;;;2611911;54;20415;-59
2024/04/02 10:04:42;;;;;;;0.60;0.40;;;19.20;1.00;;;;;;2612804;54;20435;-59
2024/04/02 10:07:20;;;;;;;0.60;0.40;;;19.30;1.00;;;;;;2613163;54;20424;-60
2024/04/02 10:09:57;;;;;;;0.60;0.40;;;19.20;1.00;;;;;;2613690;39;20854;-60
2024/04/02 10:12:28;;;;;;;0.70;0.40;;;19.30;1.00;;;;;;2612296;54;20796;-59
2024/04/02 10:14:55;;;;;;;0.60;0.40;;;19.30;1.00;;;;;;2612249;47;20467;-60
2024/04/02 10:17:20;;;;;;;0.60;0.40;;;19.30;1.00;;;;;;2613214;54;20431;-59
2024/04/02 10:19:47;;;;;;;0.60;0.43;;;19.30;1.00;;;;;;2614001;39;21248;-58
2024/04/02 10:22:23;;;;;;;0.60;0.40;;;19.30;1.00;;;;;;2613071;47;20163;-60
2024/04/02 10:25:20;;;;;;;0.60;0.40;;;19.30;1.00;;;;;;2613346;51;20423;-62
2024/04/02 10:27:50;;;;;;;0.60;0.40;;;19.30;1.00;;;;;;2613220;54;20422;-62
2024/04/02 10:30:20;;;;;;;0.60;0.40;;;19.20;1.00;;;;;;2613180;47;20554;-63
2024/04/02 10:32:46;;;;;;;0.60;0.40;;;19.30;1.00;;;;;;2613194;54;20447;-62
2024/04/02 10:35:26;;;;;;;0.70;0.50;;;19.20;1.00;;;;;;2612347;46;20875;-63
2024/04/02 10:37:55;;;;;;;0.60;0.40;;;19.20;1.00;;;;;;2613067;47;20431;-62
2024/04/02 10:40:21;;;;;;;0.60;0.40;;;19.30;1.00;;;;;;2612901;54;21006;-63
2024/04/02 10:42:48;;;;;;;0.60;0.40;;;19.30;1.00;;;;;;2613203;47;20408;-61
2024/04/02 10:45:15;;;;;;;0.60;0.37;;;19.30;1.00;;;;;;2612854;54;20439;-59
2024/04/02 10:47:51;;;;;;;0.60;0.40;;;19.30;1.00;;;;;;2613449;54;20396;-58
2024/04/02 10:50:19;;;;;;;0.60;0.40;;;19.30;1.00;;;;;;2613302;54;20427;-59
2024/04/02 10:52:45;;;;;;;0.60;0.40;;;19.30;1.00;;;;;;2614228;31;20834;-59
2024/04/02 10:55:11;;;;;;;0.60;0.40;;;19.40;1.00;;;;;;2612703;54;20416;-62
2024/04/02 10:57:38;;;;;;;0.60;0.40;;;19.40;1.00;;;;;;2613377;54;20198;-63
2024/04/02 11:00:07;;;;;;;0.60;0.40;;;19.40;1.00;;;;;;2611908;54;21274;-62
2024/04/02 11:02:33;;;;;;;0.60;0.40;;;19.50;1.00;;;;;;2611865;39;20859;-63
2024/04/02 11:04:59;;;;;;;0.60;0.40;;;19.50;1.00;;;;;;2612395;47;20412;-62
2024/04/02 11:07:29;;;;;;;0.60;0.40;;;19.50;1.00;;;;;;2613063;47;20177;-62
2024/04/02 11:09:55;;;;;;;0.60;0.50;;;19.50;1.00;;;;;;2613392;54;20447;-62
2024/04/02 11:12:21;;;;;;;0.60;0.40;;;19.50;1.00;;;;;;2612603;54;20440;-62
2024/04/02 11:14:52;;;;;;;0.60;0.40;;;19.60;1.00;;;;;;2613067;54;20812;-62
2024/04/02 11:17:18;;;;;;;0.60;0.40;;;19.60;1.00;;;;;;2612733;54;20408;-62
2024/04/02 11:19:44;;;;;;;0.60;0.40;;;19.50;1.00;;;;;;2613166;47;20435;-62
2024/04/02 11:25:06;;;;;;;0.60;0.40;;;19.50;1.00;;;;;;2613437;54;20970;-62
2024/04/02 11:27:32;;;;;;;0.60;0.40;;;19.50;1.00;;;;;;2613025;54;20415;-62
2024/04/02 11:29:59;;;;;;;0.60;0.40;;;19.50;1.00;;;;;;2612073;54;20503;-62
2024/04/02 11:32:28;;;;;;;0.60;0.40;;;19.50;1.00;;;;;;2613157;54;20408;-62
2024/04/02 11:34:57;;;;;;;0.60;0.40;;;19.50;1.00;;;;;;2613124;54;20543;-66
2024/04/02 11:37:22;;;;;;;0.60;0.30;;;19.40;1.00;;;;;;2613228;54;20399;-66
2024/04/02 11:39:48;;;;;;;0.60;0.30;;;19.40;1.00;;;;;;2613482;54;20538;-66
2024/04/02 11:42:14;;;;;;;0.60;0.40;;;19.40;1.00;;;;;;2612524;54;20215;-66
2024/04/02 11:44:40;;;;;;;0.60;0.40;;;19.40;1.00;;;;;;2612735;54;20673;-67
2024/04/02 11:47:05;;;;;;;0.60;0.40;;;19.40;1.00;;;;;;2612943;51;20752;-65
2024/04/02 11:49:31;;;;;;;0.60;0.40;;;19.40;1.00;;;;;;2612371;54;20491;-67
2024/04/02 11:51:57;;;;;;;0.60;0.40;;;19.50;1.00;;;;;;2613597;54;20158;-66
2024/04/02 11:54:22;;;;;;;0.60;0.40;;;19.40;1.00;;;;;;2613268;54;20219;-67
2024/04/02 12:02:19;;;;;;;0.60;0.40;;;19.40;1.00;;;;;;2612524;39;20759;-65
2024/04/02 12:04:45;;;;;;;0.60;0.40;;;19.40;1.00;;;;;;2612943;54;20415;-62
2024/04/02 12:07:11;;;;;;;0.60;0.40;;;19.40;1.00;;;;;;2612976;54;20456;-63
2024/04/02 12:09:37;;;;;;;0.60;0.40;;;19.40;1.00;;;;;;2612921;54;20159;-63
2024/04/02 12:12:03;;;;;;;0.60;0.40;;;19.40;1.00;;;;;;2612160;54;20170;-62
2024/04/02 12:14:29;;;;;;;0.60;0.40;;;19.40;1.00;;;;;;2613135;47;20422;-63
2024/04/02 12:16:55;;;;;;;0.60;0.40;;;19.40;1.00;;;;;;2612508;54;20415;-63
2024/04/02 12:19:20;;;;;;;0.70;0.50;;;19.40;1.00;;;;;;2612852;47;20193;-63
2024/04/02 12:21:46;;;;;;;0.60;0.40;;;19.40;1.00;;;;;;2613285;47;20495;-63
2024/04/02 12:24:12;;;;;;;0.60;0.40;;;19.40;1.00;;;;;;2612966;47;20657;-63
2024/04/02 12:26:38;;;;;;;0.60;0.40;;;19.40;1.00;;;;;;2612488;54;20249;-62
2024/04/02 12:29:04;;;;;;;0.60;0.40;;;19.40;1.00;;;;;;2612455;54;20946;-61
2024/04/02 12:31:30;;;;;;;0.60;0.50;;;19.40;1.00;;;;;;2613224;39;20604;-62
2024/04/02 12:33:56;;;;;;;0.60;0.40;;;19.40;1.00;;;;;;2613396;54;20495;-62
2024/04/02 12:36:22;;;;;;;0.67;0.50;;;19.40;1.00;;;;;;2612274;54;20418;-62
2024/04/02 12:38:48;;;;;;;0.60;0.40;;;19.40;1.00;;;;;;2612994;54;20467;-63
2024/04/02 12:41:14;;;;;;;0.60;0.40;;;19.40;1.00;;;;;;2611858;39;20683;-61
2024/04/02 12:43:41;;;;;;;0.60;0.50;;;19.50;1.00;;;;;;2612696;54;20302;-63
2024/04/02 12:46:07;;;;;;;0.60;0.40;;;19.40;1.00;;;;;;2612746;54;20167;-66
2024/04/02 12:48:33;;;;;;;0.60;0.50;;;19.40;1.00;;;;;;2612946;47;20571;-65
2024/04/02 12:50:59;;;;;;;0.60;0.40;;;19.40;1.00;;;;;;2612200;54;20419;-67
2024/04/02 12:53:24;;;;;;;0.60;0.40;;;19.40;1.00;;;;;;2613206;39;20675;-65
2024/04/02 12:55:51;;;;;;;0.60;0.40;;;19.40;1.00;;;;;;2612199;54;20178;-66
2024/04/02 12:58:17;;;;;;;0.60;0.40;;;19.40;1.00;;;;;;2613737;39;20546;-67
2024/04/02 13:00:43;;;;;;;0.60;0.40;;;19.40;1.00;;;;;;2611911;54;21003;-67
2024/04/02 13:03:09;;;;;;;0.60;0.50;;;19.40;1.00;;;;;;2612644;47;20427;-65
2024/04/02 13:05:44;;;;;;;0.60;0.40;;;19.30;1.00;;;;;;2613673;54;20678;-61